createdAt,value
2022-10-29T00:00:50.551Z,11.62
2022-10-29T00:03:17.564Z,11.59
2022-10-29T00:05:44.245Z,11.56
2022-10-29T00:08:10.811Z,11.55
2022-10-29T00:10:37.429Z,11.55
2022-10-29T00:13:04.442Z,11.56
2022-10-29T00:15:31.093Z,11.53
2022-10-29T00:17:58.143Z,11.50
2022-10-29T00:20:25.062Z,11.43
2022-10-29T00:22:55.331Z,11.33
2022-10-29T00:25:22.372Z,11.26
2022-10-29T00:27:49.076Z,11.18
2022-10-29T00:30:16.040Z,11.12
2022-10-29T00:32:42.649Z,11.06
2022-10-29T00:35:09.532Z,11.03
2022-10-29T00:37:36.279Z,10.99
2022-10-29T00:40:03.808Z,10.93
2022-10-29T00:42:30.427Z,10.88
2022-10-29T00:44:57.038Z,10.83
2022-10-29T00:47:36.487Z,10.79
2022-10-29T00:50:09.499Z,10.72
2022-10-29T00:52:41.075Z,10.63
2022-10-29T00:55:10.743Z,10.57
2022-10-29T00:57:41.263Z,10.53
2022-10-29T01:00:08.564Z,10.49
2022-10-29T01:02:38.375Z,10.47
2022-10-29T01:05:06.298Z,10.41
2022-10-29T01:07:33.103Z,10.41
2022-10-29T01:09:59.717Z,10.41
2022-10-29T01:12:36.610Z,10.39
2022-10-29T01:15:33.644Z,10.36
2022-10-29T01:18:00.179Z,10.33
2022-10-29T01:20:41.813Z,10.31
2022-10-29T01:23:17.213Z,10.29
2022-10-29T01:26:14.811Z,10.24
2022-10-29T01:29:00.148Z,10.19
2022-10-29T01:31:40.297Z,10.14
2022-10-29T01:34:21.411Z,10.09
2022-10-29T01:37:20.271Z,10.00
2022-10-29T01:39:55.175Z,9.97
2022-10-29T01:42:29.855Z,9.92
2022-10-29T01:45:13.563Z,9.90
2022-10-29T01:47:48.735Z,9.87
2022-10-29T01:50:21.267Z,9.87
2022-10-29T01:52:49.452Z,9.86
2022-10-29T01:55:19.522Z,9.85
2022-10-29T01:57:46.129Z,9.83
2022-10-29T02:00:16.271Z,9.84
2022-10-29T02:02:48.079Z,9.83
2022-10-29T02:05:33.301Z,9.81
2022-10-29T02:08:08.959Z,9.81
2022-10-29T02:11:09.214Z,9.85
2022-10-29T02:13:44.402Z,9.87
2022-10-29T02:16:12.021Z,9.88
2022-10-29T02:18:47.741Z,9.85
2022-10-29T02:21:18.312Z,9.82
2022-10-29T02:23:45.195Z,9.78
2022-10-29T02:26:12.535Z,9.77
2022-10-29T02:28:39.392Z,9.75
2022-10-29T02:31:06.170Z,9.72
2022-10-29T02:33:32.836Z,9.69
2022-10-29T02:35:59.406Z,9.66
2022-10-29T02:38:25.931Z,9.63
2022-10-29T02:40:52.836Z,9.60
2022-10-29T02:45:51.094Z,9.56
2022-10-29T02:48:17.727Z,9.53
2022-10-29T02:50:44.345Z,9.51
2022-10-29T02:53:10.939Z,9.50
2022-10-29T02:55:37.481Z,9.49
2022-10-29T02:58:04.049Z,9.49
2022-10-29T03:00:30.592Z,9.47
2022-10-29T03:02:57.389Z,9.44
2022-10-29T03:05:24.303Z,9.42
2022-10-29T03:07:50.882Z,9.41
2022-10-29T03:10:17.576Z,9.39
2022-10-29T03:12:44.159Z,9.38
2022-10-29T03:15:10.890Z,9.35
2022-10-29T03:17:37.517Z,9.31
2022-10-29T03:20:04.565Z,9.28
2022-10-29T03:22:31.110Z,9.30
2022-10-29T03:24:57.765Z,9.27
2022-10-29T03:27:24.378Z,9.24
2022-10-29T03:29:51.015Z,9.23
2022-10-29T03:32:17.652Z,9.21
2022-10-29T03:34:44.293Z,9.18
2022-10-29T03:37:10.854Z,9.17
2022-10-29T03:39:37.423Z,9.17
2022-10-29T03:42:04.117Z,9.16
2022-10-29T03:44:31.183Z,9.16
2022-10-29T03:46:57.801Z,9.17
2022-10-29T03:49:24.356Z,9.15
2022-10-29T03:51:50.952Z,9.16
2022-10-29T03:54:17.502Z,9.21
2022-10-29T03:56:44.085Z,9.24
2022-10-29T04:01:42.365Z,9.23
2022-10-29T04:04:10.176Z,9.25
2022-10-29T04:06:36.722Z,9.26
2022-10-29T04:09:03.821Z,9.26
2022-10-29T04:11:30.431Z,9.30
2022-10-29T04:13:58.605Z,9.28
2022-10-29T04:16:25.315Z,9.25
2022-10-29T04:18:52.122Z,9.25
2022-10-29T04:29:39.486Z,9.17
2022-10-29T04:32:06.071Z,9.15
2022-10-29T04:34:32.711Z,9.12
2022-10-29T04:36:59.300Z,9.08
2022-10-29T04:39:25.909Z,9.06
2022-10-29T04:41:52.470Z,9.01
2022-10-29T04:44:20.126Z,8.98
2022-10-29T04:46:46.861Z,8.94
2022-10-29T04:49:13.571Z,8.92
2022-10-29T04:51:40.177Z,8.90
2022-10-29T04:54:06.833Z,8.86
2022-10-29T04:56:33.518Z,8.82
2022-10-29T04:59:00.104Z,8.77
2022-10-29T05:01:27.031Z,8.76
2022-10-29T05:03:57.149Z,8.74
2022-10-29T05:06:26.621Z,8.72
2022-10-29T05:08:53.212Z,8.72
2022-10-29T05:11:19.788Z,8.72
2022-10-29T05:13:46.538Z,8.73
2022-10-29T05:16:13.261Z,8.74
2022-10-29T05:18:39.973Z,8.76
2022-10-29T05:21:06.995Z,8.77
2022-10-29T05:23:33.583Z,8.80
2022-10-29T05:26:00.132Z,8.84
2022-10-29T05:28:26.770Z,8.86
2022-10-29T05:30:54.340Z,8.87
2022-10-29T05:33:23.482Z,8.91
2022-10-29T05:35:50.568Z,8.92
2022-10-29T05:38:17.455Z,8.96
2022-10-29T05:40:45.217Z,8.99
2022-10-29T05:43:16.738Z,9.03
2022-10-29T05:45:43.984Z,9.08
2022-10-29T05:50:43.737Z,9.15
2022-10-29T05:53:13.115Z,9.22
2022-10-29T05:55:42.348Z,9.28
2022-10-29T05:58:13.564Z,9.32
2022-10-29T06:00:43.338Z,9.38
2022-10-29T06:03:18.141Z,9.41
2022-10-29T06:05:46.865Z,9.48
2022-10-29T06:08:13.585Z,9.52
2022-10-29T06:10:40.712Z,9.59
2022-10-29T06:13:12.079Z,9.59
2022-10-29T06:15:38.834Z,9.53
2022-10-29T06:18:05.472Z,9.63
2022-10-29T06:20:32.327Z,9.73
2022-10-29T06:22:59.862Z,9.65
2022-10-29T06:25:27.658Z,9.68
2022-10-29T06:28:04.783Z,9.78
2022-10-29T06:30:33.123Z,9.89
2022-10-29T06:33:00.465Z,9.96
2022-10-29T06:35:28.002Z,10.00
2022-10-29T06:37:55.425Z,10.05
2022-10-29T06:40:23.113Z,10.18
2022-10-29T06:42:49.798Z,10.31
2022-10-29T06:45:17.265Z,10.39
2022-10-29T06:47:45.547Z,10.58
2022-10-29T06:50:13.612Z,10.71
2022-10-29T06:52:40.314Z,10.85
2022-10-29T06:55:08.102Z,10.96
2022-10-29T06:57:34.695Z,11.08
2022-10-29T07:00:05.638Z,11.22
2022-10-29T07:02:35.571Z,11.40
2022-10-29T07:05:02.288Z,11.60
2022-10-29T07:07:29.721Z,11.82
2022-10-29T07:09:56.582Z,11.97
2022-10-29T07:12:23.218Z,12.15
2022-10-29T07:14:49.766Z,12.26
2022-10-29T07:17:16.336Z,12.28
2022-10-29T07:19:43.159Z,12.02
2022-10-29T07:22:09.703Z,11.89
2022-10-29T07:24:36.297Z,11.92
2022-10-29T07:27:03.038Z,12.00
2022-10-29T07:29:29.666Z,12.02
2022-10-29T07:31:56.300Z,12.15
2022-10-29T07:34:22.909Z,12.24
2022-10-29T07:36:49.589Z,12.07
2022-10-29T07:39:18.711Z,11.98
2022-10-29T07:41:45.323Z,12.14
2022-10-29T07:44:12.036Z,12.25
2022-10-29T07:46:38.767Z,12.49
2022-10-29T07:49:05.383Z,12.53
2022-10-29T07:51:32.076Z,12.71
2022-10-29T07:53:58.950Z,12.83
2022-10-29T07:56:26.158Z,13.06
2022-10-29T07:58:52.726Z,13.40
2022-10-29T08:01:19.480Z,13.32
2022-10-29T08:03:46.206Z,13.32
2022-10-29T08:06:12.811Z,13.89
2022-10-29T08:08:39.373Z,14.13
2022-10-29T08:11:07.108Z,13.89
2022-10-29T08:13:34.151Z,13.97
2022-10-29T08:16:00.804Z,14.13
2022-10-29T08:18:27.590Z,14.67
2022-10-29T08:20:54.239Z,14.76
2022-10-29T08:23:20.910Z,14.76
2022-10-29T08:25:47.616Z,14.36
2022-10-29T08:28:16.196Z,14.65
2022-10-29T08:30:46.349Z,14.95
2022-10-29T08:33:12.971Z,15.06
2022-10-29T08:35:39.574Z,15.61
2022-10-29T08:38:06.671Z,15.80
2022-10-29T08:41:01.052Z,15.67
2022-10-29T08:43:33.576Z,15.41
2022-10-29T08:46:00.677Z,15.71
2022-10-29T08:48:44.456Z,16.21
2022-10-29T08:51:19.150Z,16.78
2022-10-29T08:53:58.657Z,15.74
2022-10-29T08:56:40.305Z,16.17
2022-10-29T08:59:16.885Z,15.94
2022-10-29T09:01:44.541Z,16.06
2022-10-29T09:04:35.468Z,16.47
2022-10-29T09:07:39.240Z,16.45
2022-10-29T09:10:11.629Z,17.10
2022-10-29T09:12:51.793Z,16.59
2022-10-29T09:15:38.950Z,16.80
2022-10-29T09:18:11.781Z,17.82
2022-10-29T09:20:44.356Z,18.32
2022-10-29T09:23:21.088Z,17.98
2022-10-29T09:25:57.165Z,18.65
2022-10-29T09:28:36.899Z,18.04
2022-10-29T09:31:28.345Z,18.58
2022-10-29T09:34:02.771Z,18.37
2022-10-29T09:36:31.036Z,19.51
2022-10-29T09:39:02.613Z,19.49
2022-10-29T09:41:34.715Z,19.60
2022-10-29T09:44:08.048Z,19.11
2022-10-29T09:46:43.419Z,19.91
2022-10-29T09:49:28.523Z,20.67
2022-10-29T09:52:06.802Z,21.04
2022-10-29T09:54:34.770Z,21.19
2022-10-29T09:57:03.329Z,21.66
2022-10-29T09:59:36.807Z,21.83
2022-10-29T10:02:20.157Z,22.37
2022-10-29T10:04:49.350Z,22.58
2022-10-29T10:07:22.111Z,22.84
2022-10-29T10:10:03.936Z,23.37
2022-10-29T10:12:44.593Z,23.76
2022-10-29T10:15:25.759Z,23.94
2022-10-29T10:18:02.656Z,24.00
2022-10-29T10:20:33.711Z,23.46
2022-10-29T10:23:00.605Z,23.48
2022-10-29T10:25:33.155Z,24.04
2022-10-29T10:28:04.111Z,24.41
2022-10-29T10:30:30.720Z,24.80
2022-10-29T10:33:12.347Z,25.06
2022-10-29T10:35:38.971Z,25.23
2022-10-29T10:38:09.930Z,25.13
2022-10-29T10:40:37.319Z,24.78
2022-10-29T10:43:06.936Z,24.56
2022-10-29T10:45:37.484Z,24.48
2022-10-29T10:48:09.851Z,24.57
2022-10-29T10:50:37.720Z,23.66
2022-10-29T10:53:20.427Z,24.39
2022-10-29T10:55:57.960Z,24.77
2022-10-29T10:58:35.395Z,24.57
2022-10-29T11:01:16.499Z,24.42
2022-10-29T11:03:46.409Z,24.80
2022-10-29T11:06:33.920Z,24.97
2022-10-29T11:09:21.519Z,24.79
2022-10-29T11:12:00.332Z,25.03
2022-10-29T11:14:43.098Z,24.62
2022-10-29T11:17:37.148Z,24.82
2022-10-29T11:20:15.115Z,25.05
2022-10-29T11:23:19.454Z,25.41
2022-10-29T11:25:56.493Z,24.86
2022-10-29T11:28:23.086Z,24.32
2022-10-29T11:30:59.972Z,24.93
2022-10-29T11:33:35.559Z,25.48
2022-10-29T11:36:11.780Z,25.40
2022-10-29T11:38:50.710Z,25.34
2022-10-29T11:41:22.303Z,25.61
2022-10-29T11:43:49.436Z,25.67
2022-10-29T11:46:39.331Z,25.89
2022-10-29T11:49:24.714Z,26.18
2022-10-29T11:52:13.615Z,26.33
2022-10-29T11:55:15.633Z,26.35
2022-10-29T11:58:01.002Z,26.54
2022-10-29T12:00:35.426Z,26.79
2022-10-29T12:03:54.340Z,27.03
2022-10-29T12:06:39.692Z,26.79
2022-10-29T12:09:41.883Z,26.06
2022-10-29T12:12:29.582Z,25.67
2022-10-29T12:15:06.621Z,25.58
2022-10-29T12:18:02.219Z,26.51
2022-10-29T12:21:18.877Z,26.72
2022-10-29T12:24:05.686Z,26.97
2022-10-29T12:26:34.910Z,27.23
2022-10-29T12:29:37.541Z,27.49
2022-10-29T12:32:14.303Z,27.64
2022-10-29T12:35:06.511Z,27.34
2022-10-29T12:38:06.907Z,27.30
2022-10-29T12:40:38.306Z,27.46
2022-10-29T12:43:11.535Z,27.18
2022-10-29T12:46:14.236Z,26.95
2022-10-29T12:48:58.372Z,27.01
2022-10-29T12:51:32.931Z,27.07
2022-10-29T12:54:02.425Z,27.34
2022-10-29T12:56:30.984Z,27.48
2022-10-29T12:58:59.821Z,27.59
2022-10-29T13:01:30.272Z,27.68
2022-10-29T13:04:26.877Z,28.11
2022-10-29T13:07:23.051Z,28.38
2022-10-29T13:10:21.969Z,27.75
2022-10-29T13:13:16.532Z,27.84
2022-10-29T13:15:50.000Z,27.94
2022-10-29T13:18:44.511Z,27.71
2022-10-29T13:21:11.274Z,27.95
2022-10-29T13:23:38.094Z,28.15
2022-10-29T13:26:06.937Z,28.37
2022-10-29T13:28:36.233Z,28.21
2022-10-29T13:31:02.766Z,28.37
2022-10-29T13:33:51.112Z,28.75
2022-10-29T13:36:17.938Z,29.01
2022-10-29T13:39:07.536Z,29.07
2022-10-29T13:41:44.211Z,28.62
2022-10-29T13:44:19.505Z,28.59
2022-10-29T13:47:02.051Z,28.75
2022-10-29T13:49:43.252Z,28.75
2022-10-29T13:52:09.792Z,29.20
2022-10-29T13:55:06.518Z,29.14
2022-10-29T13:57:59.250Z,28.81
2022-10-29T14:00:26.466Z,28.68
2022-10-29T14:03:02.175Z,28.63
2022-10-29T14:05:35.504Z,28.42
2022-10-29T14:08:20.716Z,28.24
2022-10-29T14:10:51.633Z,28.01
2022-10-29T14:13:46.731Z,27.50
2022-10-29T14:16:20.643Z,27.50
2022-10-29T14:18:49.058Z,27.42
2022-10-29T14:21:22.661Z,27.25
2022-10-29T14:24:01.950Z,26.95
2022-10-29T14:26:34.504Z,27.07
2022-10-29T14:29:13.290Z,27.03
2022-10-29T14:31:40.244Z,26.82
2022-10-29T14:34:14.194Z,26.66
2022-10-29T14:36:46.350Z,26.24
2022-10-29T14:39:28.732Z,26.48
2022-10-29T14:42:07.103Z,26.61
2022-10-29T14:44:34.622Z,26.35
2022-10-29T14:47:07.783Z,26.00
2022-10-29T14:49:40.746Z,25.98
2022-10-29T14:52:21.574Z,26.06
2022-10-29T14:54:50.690Z,25.63
2022-10-29T14:57:21.138Z,25.35
2022-10-29T14:59:52.526Z,24.74
2022-10-29T15:05:23.994Z,22.47
2022-10-29T15:07:50.813Z,21.67
2022-10-29T15:10:24.996Z,21.27
2022-10-29T15:12:53.124Z,20.74
2022-10-29T15:15:30.405Z,20.23
2022-10-29T15:18:05.880Z,19.84
2022-10-29T15:20:36.317Z,19.51
2022-10-29T15:23:03.995Z,19.16
2022-10-29T15:25:39.639Z,18.90
2022-10-29T15:28:12.315Z,18.57
2022-10-29T15:30:39.113Z,18.30
2022-10-29T15:33:14.600Z,18.07
2022-10-29T15:35:54.195Z,17.79
2022-10-29T15:38:29.949Z,17.61
2022-10-29T15:41:19.314Z,17.42
2022-10-29T15:43:55.112Z,17.25
2022-10-29T15:46:30.975Z,17.05
2022-10-29T15:48:57.908Z,16.91
2022-10-29T15:51:28.373Z,16.79
2022-10-29T15:53:56.312Z,16.67
2022-10-29T15:56:24.011Z,16.56
2022-10-29T15:58:52.405Z,16.43
2022-10-29T16:01:19.252Z,16.33
2022-10-29T16:03:46.002Z,16.22
2022-10-29T16:06:15.677Z,16.10
2022-10-29T16:08:47.682Z,16.01
2022-10-29T16:11:16.649Z,15.89
2022-10-29T16:13:43.500Z,15.80
2022-10-29T16:16:22.697Z,15.69
2022-10-29T16:18:49.546Z,15.60
2022-10-29T16:21:21.682Z,15.54
2022-10-29T16:23:49.083Z,15.47
2022-10-29T16:26:18.060Z,15.40
2022-10-29T16:28:44.791Z,15.33
2022-10-29T16:31:20.575Z,15.27
2022-10-29T16:33:49.075Z,15.20
2022-10-29T16:36:16.448Z,15.15
2022-10-29T16:38:43.971Z,15.10
2022-10-29T16:41:15.673Z,15.06
2022-10-29T16:43:43.352Z,14.99
2022-10-29T16:46:11.278Z,14.96
2022-10-29T16:48:38.341Z,14.90
2022-10-29T16:51:05.639Z,14.86
2022-10-29T16:53:32.613Z,14.82
2022-10-29T16:55:59.376Z,14.80
2022-10-29T16:58:26.762Z,14.77
2022-10-29T17:01:05.177Z,14.74
2022-10-29T17:03:33.245Z,14.69
2022-10-29T17:06:08.493Z,14.64
2022-10-29T17:08:36.271Z,14.61
2022-10-29T17:11:06.126Z,14.52
2022-10-29T17:13:34.544Z,14.43
2022-10-29T17:16:01.222Z,14.36
2022-10-29T17:18:27.891Z,14.30
2022-10-29T17:20:56.288Z,14.26
2022-10-29T17:23:23.206Z,14.22
2022-10-29T17:25:56.922Z,14.17
2022-10-29T17:28:25.103Z,14.14
2022-10-29T17:30:51.894Z,14.11
2022-10-29T17:33:19.298Z,14.09
2022-10-29T17:35:46.142Z,14.07
2022-10-29T17:38:12.859Z,14.05
2022-10-29T17:40:39.781Z,14.02
2022-10-29T17:43:06.460Z,14.00
2022-10-29T17:45:33.086Z,14.00
2022-10-29T17:48:00.151Z,14.01
2022-10-29T17:50:27.599Z,13.99
2022-10-29T17:52:55.023Z,13.96
2022-10-29T17:55:21.674Z,13.94
2022-10-29T17:57:48.427Z,13.90
2022-10-29T18:00:15.498Z,13.88
2022-10-29T18:02:42.370Z,13.84
2022-10-29T18:05:09.350Z,13.82
2022-10-29T18:07:36.018Z,13.80
2022-10-29T18:10:02.921Z,13.74
2022-10-29T18:12:29.512Z,13.69
2022-10-29T18:14:56.144Z,13.65
2022-10-29T18:17:22.753Z,13.62
2022-10-29T18:19:49.408Z,13.58
2022-10-29T18:22:16.344Z,13.56
2022-10-29T18:24:42.958Z,13.50
2022-10-29T18:27:09.608Z,13.37
2022-10-29T18:29:36.312Z,13.30
2022-10-29T18:32:02.902Z,13.21
2022-10-29T18:34:29.772Z,13.12
2022-10-29T18:36:56.462Z,13.04
2022-10-29T18:39:23.127Z,12.99
2022-10-29T18:41:49.839Z,12.97
2022-10-29T18:44:16.474Z,12.92
2022-10-29T18:46:43.074Z,12.88
2022-10-29T18:49:13.447Z,12.85
2022-10-29T18:51:40.288Z,12.82
2022-10-29T18:54:07.019Z,12.77
2022-10-29T18:56:33.661Z,12.75
2022-10-29T18:59:00.546Z,12.72
2022-10-29T19:01:32.180Z,12.72
2022-10-29T19:04:03.798Z,12.71
2022-10-29T19:06:33.012Z,12.71
2022-10-29T19:09:01.193Z,12.73
2022-10-29T19:11:28.131Z,12.78
2022-10-29T19:13:57.017Z,12.79
2022-10-29T19:16:24.161Z,12.81
2022-10-29T19:18:59.008Z,12.76
2022-10-29T19:21:26.889Z,12.76
2022-10-29T19:24:03.667Z,12.74
2022-10-29T19:26:33.615Z,12.72
2022-10-29T19:29:02.078Z,12.66
2022-10-29T19:31:30.514Z,12.62
2022-10-29T19:33:59.852Z,12.60
2022-10-29T19:36:27.796Z,12.58
2022-10-29T19:38:54.926Z,12.53
2022-10-29T19:41:21.767Z,12.51
2022-10-29T19:43:48.774Z,12.51
2022-10-29T19:46:18.828Z,12.51
2022-10-29T19:48:53.019Z,12.48
2022-10-29T19:51:20.390Z,12.45
2022-10-29T19:53:47.183Z,12.40
2022-10-29T19:56:15.800Z,12.37
2022-10-29T19:58:42.800Z,12.37
2022-10-29T20:01:13.059Z,12.36
2022-10-29T20:03:39.852Z,12.35
2022-10-29T20:06:09.168Z,12.32
2022-10-29T20:08:38.753Z,12.32
2022-10-29T20:11:06.103Z,12.32
2022-10-29T20:13:32.856Z,12.31
2022-10-29T20:15:59.923Z,12.32
2022-10-29T20:18:26.480Z,12.30
2022-10-29T20:20:55.469Z,12.31
2022-10-29T20:23:23.323Z,12.31
2022-10-29T20:25:50.088Z,12.30
2022-10-29T20:28:16.781Z,12.30
2022-10-29T20:30:43.580Z,12.32
2022-10-29T20:33:10.302Z,12.31
2022-10-29T20:35:37.442Z,12.30
2022-10-29T20:38:04.591Z,12.30
2022-10-29T20:40:31.231Z,12.27
2022-10-29T20:42:57.900Z,12.23
2022-10-29T20:45:24.859Z,12.19
2022-10-29T20:47:51.450Z,12.15
2022-10-29T20:50:18.058Z,12.09
2022-10-29T20:52:54.494Z,12.04
2022-10-29T20:55:21.191Z,12.02
2022-10-29T20:57:47.818Z,12.01
2022-10-29T21:00:14.746Z,11.98
2022-10-29T21:02:41.375Z,11.94
2022-10-29T21:05:34.676Z,11.92
2022-10-29T21:08:01.706Z,11.92
2022-10-29T21:10:28.383Z,11.89
2022-10-29T21:12:55.447Z,11.88
2022-10-29T21:15:22.387Z,11.85
2022-10-29T21:17:48.984Z,11.85
2022-10-29T21:20:15.650Z,11.83
2022-10-29T21:22:42.223Z,11.83
2022-10-29T21:25:09.306Z,11.79
2022-10-29T21:27:35.995Z,11.79
2022-10-29T21:30:02.836Z,11.78
2022-10-29T21:32:29.438Z,11.77
2022-10-29T21:34:56.045Z,11.75
2022-10-29T21:37:22.612Z,11.73
2022-10-29T21:39:49.234Z,11.74
2022-10-29T21:42:15.808Z,11.75
2022-10-29T21:44:42.383Z,11.74
2022-10-29T21:47:08.993Z,11.71
2022-10-29T21:49:35.563Z,11.73
2022-10-29T21:52:02.148Z,11.72
2022-10-29T21:54:28.712Z,11.72
2022-10-29T21:56:55.291Z,11.71
2022-10-29T21:59:22.022Z,11.71
2022-10-29T22:01:48.737Z,11.69
2022-10-29T22:04:20.849Z,11.68
2022-10-29T22:06:47.680Z,11.67
2022-10-29T22:09:14.450Z,11.67
2022-10-29T22:11:41.048Z,11.63
2022-10-29T22:14:07.650Z,11.62
2022-10-29T22:16:34.249Z,11.63
2022-10-29T22:19:00.819Z,11.63
2022-10-29T22:21:27.409Z,11.61
2022-10-29T22:23:56.321Z,11.60
2022-10-29T22:26:28.820Z,11.58
2022-10-29T22:28:55.854Z,11.56
2022-10-29T22:31:23.896Z,11.55
2022-10-29T22:33:51.040Z,11.56
2022-10-29T22:36:19.996Z,11.55
2022-10-29T22:38:47.215Z,11.52
2022-10-29T22:41:15.945Z,11.48
2022-10-29T22:43:43.531Z,11.48
2022-10-29T22:46:12.447Z,11.46
2022-10-29T22:48:39.015Z,11.44
2022-10-29T22:51:05.726Z,11.46
2022-10-29T22:53:33.032Z,11.48
2022-10-29T22:56:00.796Z,11.47
2022-10-29T22:58:27.529Z,11.49
2022-10-29T23:01:12.799Z,11.47
2022-10-29T23:03:41.521Z,11.48
2022-10-29T23:06:10.656Z,11.48
2022-10-29T23:08:37.452Z,11.48
2022-10-29T23:11:08.960Z,11.50
2022-10-29T23:13:35.700Z,11.51
2022-10-29T23:16:02.451Z,11.49
2022-10-29T23:18:29.173Z,11.49
2022-10-29T23:21:03.076Z,11.45
2022-10-29T23:23:30.332Z,11.42
2022-10-29T23:26:01.376Z,11.35
2022-10-29T23:28:32.739Z,11.27
2022-10-29T23:31:01.788Z,11.23
2022-10-29T23:33:29.962Z,11.22
2022-10-29T23:36:00.776Z,11.23
2022-10-29T23:38:27.341Z,11.20
2022-10-29T23:40:53.977Z,11.18
2022-10-29T23:43:20.582Z,11.17
2022-10-29T23:45:47.141Z,11.15
2022-10-29T23:48:13.713Z,11.12
2022-10-29T23:50:40.557Z,11.10
2022-10-29T23:53:07.629Z,11.05
2022-10-29T23:55:34.880Z,10.98
2022-10-29T23:58:02.290Z,10.90
